Time;durP1;ratioP1;P1;durP2;ratioP2;P2;SDS_P1;SDS_P2;PMS_P1;PMS_P2;Temp;Humidity;BMP_temperature;BMP_pressure;BME280_temperature;BME280_humidity;BME280_pressure;Samples;Min_cycle;Max_cycle;Signal;HPM_P1;HPM_P2
2021/12/12 00:02:21;;;;;;;10.27;4.75;;;3.80;99.90;;;;;;4882167;28;89492;-78
2021/12/12 00:04:49;;;;;;;7.95;4.70;;;3.70;99.90;;;;;;4880003;28;91898;-78
2021/12/12 00:07:21;;;;;;;10.77;4.97;;;3.70;99.90;;;;;;4880471;28;91022;-79
2021/12/12 00:09:52;;;;;;;13.70;5.15;;;3.70;99.90;;;;;;4881857;28;90063;-78
2021/12/12 00:12:25;;;;;;;10.98;5.20;;;3.70;99.90;;;;;;4881254;28;89178;-79
2021/12/12 00:14:52;;;;;;;10.40;5.10;;;3.70;99.90;;;;;;4904895;28;91369;-79
2021/12/12 00:17:19;;;;;;;14.38;5.70;;;3.70;99.90;;;;;;4903923;28;91600;-78
2021/12/12 00:19:46;;;;;;;9.25;4.95;;;3.70;99.90;;;;;;4881674;28;89351;-78
2021/12/12 00:22:18;;;;;;;9.85;5.13;;;3.70;99.90;;;;;;4881735;28;89418;-78
2021/12/12 00:24:45;;;;;;;13.75;5.38;;;3.60;99.90;;;;;;4881999;28;91683;-78
2021/12/12 00:27:11;;;;;;;15.57;5.20;;;3.70;99.90;;;;;;4881510;28;89365;-79
2021/12/12 00:29:37;;;;;;;11.38;4.78;;;3.60;99.90;;;;;;4881377;28;89665;-79
2021/12/12 05:02:10;;;;;;;6.38;2.78;;;2.50;99.90;;;;;;5161153;23;91990;-78
2021/12/12 05:04:47;;;;;;;7.10;2.65;;;2.50;99.90;;;;;;4898049;28;91800;-78
2021/12/12 05:07:25;;;;;;;5.53;2.55;;;2.50;99.90;;;;;;4899420;28;89253;-78
2021/12/12 05:09:54;;;;;;;7.38;2.70;;;2.50;99.90;;;;;;4899382;28;91783;-79
2021/12/12 05:12:29;;;;;;;6.32;2.90;;;2.50;99.90;;;;;;4899792;28;92650;-79
2021/12/12 05:15:00;;;;;;;6.70;2.50;;;2.50;99.90;;;;;;4900379;28;90161;-78
2021/12/12 05:17:37;;;;;;;7.85;2.60;;;2.60;99.90;;;;;;4898983;28;89491;-78
2021/12/12 05:20:10;;;;;;;6.40;2.92;;;2.60;99.90;;;;;;4900399;28;89386;-78
2021/12/12 05:22:45;;;;;;;4.95;2.80;;;2.60;99.90;;;;;;4899270;28;93648;-77
2021/12/12 05:25:23;;;;;;;7.57;2.97;;;2.60;99.90;;;;;;4898194;28;93425;-78
2021/12/12 05:27:53;;;;;;;5.80;3.22;;;2.60;99.90;;;;;;4898723;28;89356;-78
2021/12/12 05:30:26;;;;;;;5.95;2.38;;;2.60;99.90;;;;;;4898291;28;92566;-78
2021/12/12 05:32:53;;;;;;;4.35;2.80;;;2.60;99.90;;;;;;4898484;28;91848;-78
2021/12/12 05:35:22;;;;;;;5.72;2.42;;;2.50;99.90;;;;;;4899961;28;89270;-78
2021/12/12 05:37:51;;;;;;;5.35;2.60;;;2.40;99.90;;;;;;4898431;28;89401;-78
2021/12/12 05:40:20;;;;;;;5.80;2.88;;;2.30;99.90;;;;;;4898374;28;92913;-78
2021/12/12 05:42:46;;;;;;;5.55;2.80;;;2.20;99.90;;;;;;4899521;28;90598;-78
2021/12/12 05:45:14;;;;;;;5.05;3.00;;;2.20;99.90;;;;;;4898024;28;92725;-78
2021/12/12 05:47:40;;;;;;;5.28;2.95;;;2.10;99.90;;;;;;4899715;28;90714;-78
2021/12/12 05:50:08;;;;;;;7.88;3.45;;;1.90;99.90;;;;;;4898170;28;91722;-78
2021/12/12 05:52:34;;;;;;;9.13;3.88;;;1.80;99.90;;;;;;4898136;28;93225;-78
2021/12/12 05:55:04;;;;;;;7.25;3.75;;;1.80;99.90;;;;;;4899327;28;89482;-78
2021/12/12 05:57:30;;;;;;;5.20;3.25;;;1.90;99.90;;;;;;4899432;28;89372;-78
2021/12/12 05:59:57;;;;;;;7.40;2.97;;;1.80;99.90;;;;;;4898557;28;92770;-78
2021/12/12 06:02:25;;;;;;;6.82;2.97;;;1.90;99.90;;;;;;4898047;28;92048;-78
2021/12/12 06:04:53;;;;;;;6.57;2.95;;;1.90;99.90;;;;;;4899288;28;92234;-78
2021/12/12 06:07:20;;;;;;;5.05;3.03;;;1.80;99.90;;;;;;4903461;28;89754;-77
2021/12/12 06:09:48;;;;;;;7.10;3.10;;;1.80;99.90;;;;;;4902909;28;90207;-78
2021/12/12 06:12:15;;;;;;;7.63;2.90;;;1.70;99.90;;;;;;4902201;28;91409;-78
2021/12/12 06:14:42;;;;;;;5.93;3.10;;;1.80;99.90;;;;;;4902505;28;91141;-78
2021/12/12 06:17:11;;;;;;;6.20;3.13;;;1.80;99.90;;;;;;4903355;28;89246;-78
2021/12/12 06:19:37;;;;;;;5.10;2.85;;;1.70;99.90;;;;;;4902656;28;91204;-78
2021/12/12 06:22:03;;;;;;;6.57;3.55;;;1.70;99.90;;;;;;4902729;28;89348;-78
2021/12/12 06:24:30;;;;;;;6.53;3.55;;;1.70;99.90;;;;;;4901281;28;91462;-78
2021/12/12 06:27:05;;;;;;;8.05;3.45;;;1.60;99.90;;;;;;4903340;28;89574;-78
2021/12/12 06:29:31;;;;;;;7.70;3.60;;;1.50;99.90;;;;;;4902510;28;91481;-77
2021/12/12 06:31:57;;;;;;;7.75;3.83;;;1.40;99.90;;;;;;4901409;28;92825;-77
2021/12/12 06:34:23;;;;;;;6.85;3.78;;;1.30;99.90;;;;;;4903556;28;90398;-78
2021/12/12 06:36:50;;;;;;;8.07;3.90;;;1.20;99.90;;;;;;4925656;28;89491;-78
2021/12/12 06:39:17;;;;;;;6.70;3.53;;;1.20;99.90;;;;;;4925107;28;89140;-78
2021/12/12 06:41:43;;;;;;;7.47;3.67;;;1.10;99.90;;;;;;4902051;28;89266;-78
2021/12/12 06:44:11;;;;;;;13.02;5.07;;;1.00;99.90;;;;;;4902029;28;89256;-78
2021/12/12 06:46:39;;;;;;;6.63;4.15;;;1.00;99.90;;;;;;4900492;28;89179;-77
2021/12/12 06:49:07;;;;;;;6.88;4.10;;;1.10;99.90;;;;;;4901940;28;90256;-78
2021/12/12 06:51:36;;;;;;;10.52;4.25;;;1.10;99.90;;;;;;4901541;28;90413;-78
2021/12/12 06:54:02;;;;;;;11.23;4.47;;;1.10;99.90;;;;;;4901818;28;89656;-78
2021/12/12 06:56:28;;;;;;;7.10;4.10;;;1.10;99.90;;;;;;4900572;28;89288;-78
2021/12/12 06:58:57;;;;;;;6.65;4.40;;;1.10;99.90;;;;;;4901789;28;89327;-78
2021/12/12 07:01:27;;;;;;;8.15;4.68;;;1.00;99.90;;;;;;4899196;28;94085;-77
2021/12/12 07:03:54;;;;;;;8.52;4.65;;;1.00;99.90;;;;;;4900965;28;90764;-77
2021/12/12 07:06:24;;;;;;;7.60;4.50;;;1.10;99.90;;;;;;4901858;28;89216;-77
2021/12/12 07:08:50;;;;;;;8.32;4.63;;;1.20;99.90;;;;;;4900277;28;92964;-77
2021/12/12 07:11:21;;;;;;;10.93;4.43;;;1.20;99.90;;;;;;4899356;28;92793;-78
2021/12/12 07:13:49;;;;;;;9.05;4.63;;;1.10;99.90;;;;;;4901296;28;89544;-77
2021/12/12 07:16:15;;;;;;;6.82;4.40;;;1.10;99.90;;;;;;4900785;28;89493;-78
2021/12/12 07:18:42;;;;;;;6.97;4.22;;;1.10;99.90;;;;;;4901738;28;89890;-78
2021/12/12 07:21:11;;;;;;;6.65;3.90;;;1.10;99.90;;;;;;4901184;28;90900;-79
2021/12/12 07:23:40;;;;;;;11.13;4.80;;;1.10;99.90;;;;;;4890911;28;89727;-78
2021/12/12 07:26:07;;;;;;;8.90;4.80;;;1.20;99.90;;;;;;4882002;28;90167;-78
2021/12/12 07:28:34;;;;;;;9.70;5.07;;;1.20;99.90;;;;;;4882304;28;89285;-78
2021/12/12 07:31:04;;;;;;;8.65;4.72;;;1.40;99.90;;;;;;4897381;28;91580;-78
2021/12/12 07:33:30;;;;;;;7.63;4.60;;;1.40;99.90;;;;;;4901990;28;91970;-79
2021/12/12 07:35:59;;;;;;;7.82;4.50;;;1.50;99.90;;;;;;4907678;28;89580;-79
2021/12/12 07:38:25;;;;;;;10.63;4.63;;;1.60;99.90;;;;;;4917814;28;90151;-80
2021/12/12 07:40:51;;;;;;;6.00;4.63;;;1.60;99.90;;;;;;4916543;28;92025;-80
2021/12/12 07:43:17;;;;;;;7.35;4.45;;;1.60;99.90;;;;;;4909524;28;91878;-80
2021/12/12 07:45:43;;;;;;;6.70;4.32;;;1.50;99.90;;;;;;4905300;28;89442;-80
2021/12/12 07:48:11;;;;;;;4.93;4.10;;;1.50;99.90;;;;;;4883848;28;89368;-79
2021/12/12 07:50:39;;;;;;;8.18;4.55;;;1.50;99.90;;;;;;4883537;28;93573;-78
2021/12/12 07:53:05;;;;;;;7.20;4.30;;;1.50;99.90;;;;;;4883060;28;93366;-78
2021/12/12 07:55:32;;;;;;;8.45;4.30;;;1.60;99.90;;;;;;4883353;28;89285;-78
2021/12/12 07:57:57;;;;;;;6.72;4.05;;;1.60;99.90;;;;;;4885994;28;89297;-82
2021/12/12 08:00:25;;;;;;;5.85;3.85;;;1.70;99.90;;;;;;4919466;28;91717;-79
2021/12/12 08:02:53;;;;;;;6.93;4.18;;;1.70;99.90;;;;;;4919617;28;92899;-79
2021/12/12 08:05:28;;;;;;;5.32;3.75;;;1.80;99.90;;;;;;4920849;28;89135;-79
2021/12/12 08:07:57;;;;;;;7.00;4.15;;;1.90;99.90;;;;;;4919072;28;92933;-79
2021/12/12 08:10:22;;;;;;;6.28;3.78;;;2.00;99.90;;;;;;4919659;28;89193;-79
2021/12/12 08:12:48;;;;;;;9.82;4.22;;;2.10;99.90;;;;;;4918321;28;91764;-79
2021/12/12 08:15:15;;;;;;;7.07;3.90;;;2.30;99.90;;;;;;4919594;28;90264;-79
2021/12/12 08:17:42;;;;;;;7.60;4.10;;;2.30;99.90;;;;;;4919629;28;91190;-79
2021/12/12 08:20:11;;;;;;;6.63;3.80;;;2.50;99.90;;;;;;4918499;28;93008;-79
2021/12/12 08:22:37;;;;;;;8.07;3.55;;;2.60;99.90;;;;;;4919801;28;89222;-79
2021/12/12 08:25:06;;;;;;;6.47;3.78;;;2.80;99.90;;;;;;4919961;28;89179;-79
2021/12/12 08:27:32;;;;;;;8.50;3.60;;;2.90;99.90;;;;;;4917832;28;92226;-79
2021/12/12 08:29:59;;;;;;;5.60;3.88;;;3.10;99.90;;;;;;4919805;28;89375;-79
2021/12/12 08:32:26;;;;;;;6.50;4.68;;;3.20;99.90;;;;;;4919841;28;90078;-79
2021/12/12 08:34:52;;;;;;;6.57;4.13;;;3.20;99.90;;;;;;4919932;28;89411;-79
2021/12/12 08:37:18;;;;;;;7.10;4.15;;;3.20;99.90;;;;;;4919750;28;90200;-79
2021/12/12 08:39:45;;;;;;;5.65;4.40;;;3.20;99.90;;;;;;4919037;28;92342;-79
2021/12/12 08:42:10;;;;;;;7.82;4.40;;;3.20;99.90;;;;;;4919467;28;91165;-79
2021/12/12 08:44:37;;;;;;;8.20;4.40;;;3.30;99.90;;;;;;4919744;28;89301;-79
2021/12/12 08:47:07;;;;;;;6.28;4.10;;;3.40;99.90;;;;;;4918079;28;91920;-80
2021/12/12 08:49:35;;;;;;;6.95;4.30;;;3.50;99.90;;;;;;4918956;28;91146;-79
2021/12/12 08:52:11;;;;;;;8.98;4.32;;;3.50;99.90;;;;;;4919171;28;90830;-79
2021/12/12 08:54:39;;;;;;;6.50;4.28;;;3.60;99.90;;;;;;4919776;28;89187;-79
2021/12/12 08:57:20;;;;;;;6.70;4.30;;;3.60;99.90;;;;;;4918359;28;92641;-79
2021/12/12 08:59:48;;;;;;;6.40;4.55;;;3.70;99.90;;;;;;4919663;28;90278;-79
2021/12/12 09:02:17;;;;;;;7.43;4.47;;;3.80;99.90;;;;;;4919036;28;90184;-80
2021/12/12 09:04:52;;;;;;;7.28;4.72;;;4.00;99.90;;;;;;4918749;28;90142;-80
2021/12/12 09:07:41;;;;;;;6.13;4.35;;;4.00;99.90;;;;;;4919142;28;90965;-79
2021/12/12 09:10:13;;;;;;;8.02;4.40;;;4.10;99.90;;;;;;4918023;28;93243;-80
2021/12/12 09:12:45;;;;;;;8.80;5.30;;;4.20;99.90;;;;;;4918312;28;92882;-79
2021/12/12 09:15:24;;;;;;;6.13;5.00;;;4.20;99.90;;;;;;4917910;28;89283;-81
2021/12/12 09:17:53;;;;;;;5.65;4.50;;;4.30;99.90;;;;;;4919356;28;89285;-79
2021/12/12 09:20:46;;;;;;;6.28;4.55;;;4.30;99.90;;;;;;4917376;28;93060;-79
2021/12/12 09:23:20;;;;;;;7.18;4.28;;;4.30;99.90;;;;;;4919270;28;88883;-79
2021/12/12 09:25:52;;;;;;;5.88;4.50;;;4.30;99.90;;;;;;4919234;28;89104;-79
2021/12/12 09:28:46;;;;;;;6.10;4.63;;;4.40;99.90;;;;;;4919620;28;89128;-79
2021/12/12 09:31:16;;;;;;;8.20;4.97;;;4.40;99.90;;;;;;4918337;28;91072;-79
2021/12/12 09:33:47;;;;;;;5.88;4.38;;;4.60;99.90;;;;;;4918966;28;89879;-79
2021/12/12 09:36:20;;;;;;;6.22;4.70;;;4.70;99.90;;;;;;4919210;28;89400;-79
2021/12/12 09:38:52;;;;;;;6.13;4.18;;;4.80;99.90;;;;;;4919912;28;89381;-79
2021/12/12 09:41:51;;;;;;;5.28;4.45;;;4.90;99.90;;;;;;4922006;28;93192;-79
2021/12/12 09:44:58;;;;;;;6.05;4.18;;;5.00;99.90;;;;;;4921231;28;93231;-79
2021/12/12 09:48:15;;;;;;;5.57;4.15;;;5.10;99.90;;;;;;4930827;28;89351;-79
2021/12/12 09:51:15;;;;;;;4.88;4.10;;;5.20;99.90;;;;;;4939610;28;92399;-80
2021/12/12 09:53:50;;;;;;;5.53;4.30;;;5.10;99.90;;;;;;4947047;28;89344;-81
2021/12/12 09:56:28;;;;;;;7.00;4.20;;;5.10;99.90;;;;;;4935365;28;91764;-79
2021/12/12 09:59:23;;;;;;;6.45;4.18;;;5.10;99.90;;;;;;4920553;28;90354;-79
2021/12/12 10:02:04;;;;;;;7.07;4.20;;;5.20;99.90;;;;;;4916076;28;91852;-80
2021/12/12 10:04:40;;;;;;;5.45;3.70;;;5.10;99.90;;;;;;4920169;28;92251;-79
2021/12/12 10:07:34;;;;;;;5.88;3.83;;;5.20;99.90;;;;;;4920540;28;92588;-79
2021/12/12 10:10:05;;;;;;;5.43;3.95;;;5.20;99.90;;;;;;4920764;28;89341;-79
2021/12/12 10:12:38;;;;;;;7.22;4.15;;;5.10;99.90;;;;;;4920201;28;91813;-79
2021/12/12 10:15:18;;;;;;;5.60;3.80;;;5.10;99.90;;;;;;4919975;28;92760;-79
2021/12/12 10:17:43;;;;;;;6.78;4.50;;;5.30;99.90;;;;;;4920623;28;91662;-79
2021/12/12 10:20:11;;;;;;;7.20;4.07;;;5.50;99.90;;;;;;4920588;28;89397;-79
2021/12/12 10:23:09;;;;;;;6.70;3.63;;;5.60;99.90;;;;;;4921602;28;89760;-79
2021/12/12 10:25:36;;;;;;;4.72;3.50;;;5.70;99.90;;;;;;4916246;28;92353;-79
2021/12/12 10:28:10;;;;;;;5.00;3.55;;;5.70;99.90;;;;;;4921612;28;89614;-79
2021/12/12 10:30:47;;;;;;;4.43;3.33;;;5.80;99.90;;;;;;4921941;28;89173;-79
2021/12/12 10:33:17;;;;;;;5.70;3.70;;;5.80;99.90;;;;;;4920119;28;91837;-80
2021/12/12 10:35:46;;;;;;;3.78;3.28;;;5.90;99.90;;;;;;4921045;28;90539;-80
2021/12/12 10:38:21;;;;;;;5.47;3.60;;;5.90;99.90;;;;;;4921590;28;89271;-79
2021/12/12 10:40:56;;;;;;;6.53;3.90;;;6.00;99.90;;;;;;4920257;28;89415;-79
2021/12/12 10:43:32;;;;;;;5.30;3.85;;;5.90;99.90;;;;;;4922036;28;89106;-79
2021/12/12 10:46:06;;;;;;;5.35;3.47;;;5.70;99.90;;;;;;4920026;28;93346;-79
2021/12/12 10:48:45;;;;;;;5.75;3.78;;;5.70;99.90;;;;;;4921427;28;89040;-79
2021/12/12 10:51:16;;;;;;;4.85;3.60;;;5.50;99.90;;;;;;4918527;28;90341;-79
2021/12/12 10:53:59;;;;;;;4.60;3.78;;;5.70;99.90;;;;;;4919478;28;92858;-79
2021/12/12 10:57:00;;;;;;;4.22;3.58;;;5.80;99.90;;;;;;4919758;28;92663;-79
2021/12/12 10:59:52;;;;;;;5.88;3.22;;;5.90;99.90;;;;;;4921555;28;89807;-79
2021/12/12 11:02:24;;;;;;;5.53;3.88;;;6.00;99.90;;;;;;4921136;28;89248;-80
2021/12/12 11:05:04;;;;;;;4.88;3.40;;;6.20;99.90;;;;;;4919737;28;91739;-79
2021/12/12 11:07:52;;;;;;;4.88;3.70;;;6.30;99.90;;;;;;4921619;28;90438;-79
2021/12/12 11:10:23;;;;;;;5.45;3.55;;;6.40;99.90;;;;;;4921185;28;88906;-79
2021/12/12 11:12:57;;;;;;;6.15;4.07;;;6.40;99.90;;;;;;4924614;28;89410;-79
2021/12/12 11:15:36;;;;;;;5.75;4.15;;;6.40;99.90;;;;;;4920842;28;90040;-79
2021/12/12 11:18:02;;;;;;;4.78;3.58;;;6.30;99.90;;;;;;4919273;28;93297;-79
2021/12/12 11:20:45;;;;;;;4.68;3.80;;;6.30;99.90;;;;;;4919302;28;92318;-79
2021/12/12 11:23:20;;;;;;;4.75;3.83;;;6.50;99.90;;;;;;4919738;28;89335;-79
2021/12/12 11:25:59;;;;;;;5.45;3.95;;;6.60;99.90;;;;;;4919026;28;91773;-80
2021/12/12 11:28:30;;;;;;;5.65;3.95;;;6.60;99.90;;;;;;4921095;28;90440;-79
2021/12/12 11:31:01;;;;;;;4.95;3.47;;;6.60;99.90;;;;;;4920980;28;89727;-79
2021/12/12 11:33:30;;;;;;;4.85;3.83;;;6.80;99.90;;;;;;4921002;28;89242;-79
2021/12/12 11:35:57;;;;;;;4.68;3.60;;;6.80;99.90;;;;;;4920870;28;91504;-79
2021/12/12 11:38:46;;;;;;;5.72;3.33;;;6.70;99.90;;;;;;4919289;28;91618;-79
2021/12/12 11:41:28;;;;;;;4.20;3.05;;;6.60;99.90;;;;;;4921558;28;89906;-79
2021/12/12 11:44:24;;;;;;;6.75;3.70;;;6.70;99.90;;;;;;4918637;28;90228;-79
2021/12/12 11:47:14;;;;;;;22.33;15.10;;;6.70;99.90;;;;;;4919516;28;92639;-79
2021/12/12 11:49:51;;;;;;;10.07;6.35;;;6.70;99.90;;;;;;4918498;28;91972;-79
2021/12/12 11:52:45;;;;;;;5.72;3.85;;;6.70;99.90;;;;;;4919166;28;91955;-80
2021/12/12 11:55:25;;;;;;;8.50;6.28;;;6.90;99.90;;;;;;4920579;28;89320;-79
2021/12/12 11:57:59;;;;;;;3.70;2.72;;;6.90;99.90;;;;;;4920601;28;90275;-79
2021/12/12 12:00:34;;;;;;;6.00;4.32;;;7.00;99.90;;;;;;4919477;28;91601;-79
2021/12/12 12:03:27;;;;;;;10.88;6.90;;;6.70;99.90;;;;;;4920226;28;89890;-80
2021/12/12 12:06:17;;;;;;;5.90;3.90;;;6.60;99.90;;;;;;4920735;28;89275;-79
2021/12/12 12:08:52;;;;;;;4.07;2.85;;;6.60;99.90;;;;;;4920052;28;89220;-79
2021/12/12 12:11:51;;;;;;;4.22;3.20;;;6.80;99.90;;;;;;4918028;28;94338;-79
2021/12/12 12:14:30;;;;;;;4.45;3.10;;;6.90;99.90;;;;;;4920113;28;89649;-79
2021/12/12 12:17:24;;;;;;;5.20;3.28;;;7.00;99.90;;;;;;4919242;28;89245;-79
2021/12/12 12:20:21;;;;;;;5.35;3.78;;;7.10;99.90;;;;;;4918259;28;92565;-79
2021/12/12 12:23:16;;;;;;;5.25;3.65;;;7.00;99.90;;;;;;4919787;28;91486;-79
2021/12/12 12:28:47;;;;;;;4.55;3.67;;;6.80;99.90;;;;;;4920806;28;89264;-80
2021/12/12 12:31:36;;;;;;;7.07;3.67;;;6.80;99.90;;;;;;4919090;28;92632;-79
2021/12/12 12:34:40;;;;;;;5.22;3.08;;;6.80;99.90;;;;;;4919451;28;90483;-80
2021/12/12 12:37:50;;;;;;;4.32;3.22;;;6.80;99.90;;;;;;4919748;28;89254;-79
2021/12/12 12:40:37;;;;;;;5.28;3.40;;;6.70;99.90;;;;;;4919588;28;90417;-79
2021/12/12 12:43:24;;;;;;;6.13;3.40;;;6.80;99.90;;;;;;4920647;28;89676;-79
2021/12/12 12:46:08;;;;;;;4.60;3.72;;;6.70;99.90;;;;;;4922772;28;89611;-79
2021/12/12 12:49:11;;;;;;;3.97;3.20;;;6.70;99.90;;;;;;4932783;28;89948;-80
2021/12/12 12:52:15;;;;;;;5.43;3.35;;;6.60;99.90;;;;;;4941201;28;89407;-79
2021/12/12 12:54:59;;;;;;;5.05;3.40;;;6.50;99.90;;;;;;4937605;28;91620;-79
2021/12/12 12:57:30;;;;;;;4.97;2.97;;;6.70;99.90;;;;;;4922030;28;90256;-80
2021/12/12 13:00:06;;;;;;;5.93;3.47;;;6.60;99.90;;;;;;4919151;28;91639;-79
2021/12/12 13:02:53;;;;;;;4.85;3.42;;;6.70;99.90;;;;;;4920341;28;89348;-80
2021/12/12 13:05:52;;;;;;;4.65;3.50;;;6.90;99.90;;;;;;4921843;28;91481;-80
2021/12/12 13:08:49;;;;;;;3.90;2.90;;;6.80;99.90;;;;;;4922058;28;91091;-79
2021/12/12 13:11:35;;;;;;;3.25;2.88;;;6.70;99.90;;;;;;4921469;28;93525;-79
2021/12/12 13:14:11;;;;;;;5.28;3.63;;;6.80;99.90;;;;;;4921007;28;89626;-80
2021/12/12 13:17:11;;;;;;;5.95;3.00;;;6.90;99.90;;;;;;4926594;28;91527;-80
2021/12/12 13:19:59;;;;;;;3.92;2.90;;;7.00;99.90;;;;;;4924599;28;91855;-79
2021/12/12 13:22:34;;;;;;;8.27;3.92;;;7.10;99.90;;;;;;4925211;28;91623;-79
2021/12/12 13:25:14;;;;;;;9.20;3.15;;;7.20;99.90;;;;;;4923699;28;88944;-80
2021/12/12 13:30:40;;;;;;;7.95;4.57;;;7.30;99.90;;;;;;4928187;28;89274;-80
2021/12/12 13:33:14;;;;;;;5.15;3.38;;;7.20;99.90;;;;;;4928330;28;89867;-79
2021/12/12 13:35:59;;;;;;;7.85;2.70;;;7.20;99.90;;;;;;4925345;28;90576;-80
2021/12/12 13:38:53;;;;;;;5.80;2.63;;;7.00;99.90;;;;;;4926471;28;90263;-80
2021/12/12 13:41:38;;;;;;;4.95;2.80;;;6.90;99.90;;;;;;4925672;28;92675;-80
2021/12/12 13:44:19;;;;;;;4.60;2.90;;;6.80;99.90;;;;;;4925368;28;89716;-80
2021/12/12 13:47:06;;;;;;;6.03;2.97;;;6.80;99.90;;;;;;4925629;28;89248;-79
2021/12/12 13:49:45;;;;;;;5.63;2.95;;;6.70;99.90;;;;;;4925321;28;89225;-80
2021/12/12 13:52:21;;;;;;;5.13;3.15;;;6.70;99.90;;;;;;4923210;28;89662;-80
2021/12/12 13:55:10;;;;;;;5.47;3.50;;;6.70;99.90;;;;;;4923544;28;89007;-79
2021/12/12 13:58:03;;;;;;;6.28;3.10;;;6.70;99.90;;;;;;4922439;28;89258;-80
2021/12/12 14:00:33;;;;;;;6.28;3.70;;;6.70;99.90;;;;;;4920512;28;92497;-79
2021/12/12 14:03:18;;;;;;;9.80;4.80;;;6.70;99.90;;;;;;4920239;28;93251;-80
2021/12/12 14:05:47;;;;;;;6.10;3.35;;;6.60;99.90;;;;;;4922109;28;91191;-79
2021/12/12 14:08:20;;;;;;;5.68;3.88;;;6.60;99.90;;;;;;4921175;28;89427;-79
2021/12/12 14:10:53;;;;;;;5.50;3.50;;;6.50;99.90;;;;;;4923057;28;89914;-80
2021/12/12 14:13:30;;;;;;;6.07;3.72;;;6.50;99.90;;;;;;4922120;28;89217;-79
2021/12/12 14:16:05;;;;;;;6.43;3.00;;;6.50;99.90;;;;;;4920480;28;91906;-80
2021/12/12 14:18:37;;;;;;;5.63;3.53;;;6.50;99.90;;;;;;4922022;28;89169;-79
2021/12/12 14:21:03;;;;;;;6.10;3.22;;;6.40;99.90;;;;;;4925226;28;92144;-79
2021/12/12 14:23:33;;;;;;;5.25;3.25;;;6.50;99.90;;;;;;4924982;28;91645;-79
2021/12/12 14:26:22;;;;;;;7.65;4.40;;;6.40;99.90;;;;;;4924847;28;89904;-79
2021/12/12 14:28:52;;;;;;;4.72;3.17;;;6.40;99.90;;;;;;4927176;28;90313;-80
2021/12/12 14:31:23;;;;;;;6.55;3.63;;;6.40;99.90;;;;;;4926857;28;91675;-80
2021/12/12 14:33:56;;;;;;;6.38;3.80;;;6.30;99.90;;;;;;4926466;28;90665;-80
2021/12/12 14:36:27;;;;;;;4.57;3.05;;;6.30;99.90;;;;;;4925802;28;91690;-80
2021/12/12 14:38:56;;;;;;;6.38;3.25;;;6.20;99.90;;;;;;4927715;28;89285;-80
2021/12/12 14:41:32;;;;;;;5.30;3.35;;;6.20;99.90;;;;;;4927223;28;92553;-80
2021/12/12 14:44:00;;;;;;;10.48;8.27;;;6.30;99.90;;;;;;4927856;28;89492;-80
2021/12/12 14:46:32;;;;;;;10.20;6.25;;;6.30;99.90;;;;;;4926400;28;91845;-80
2021/12/12 14:49:03;;;;;;;10.75;5.13;;;6.40;99.90;;;;;;4927505;28;89271;-80
2021/12/12 14:51:33;;;;;;;5.75;4.20;;;6.40;99.90;;;;;;4926037;28;92021;-80
2021/12/12 14:54:06;;;;;;;6.32;3.60;;;6.40;99.90;;;;;;4922881;28;90617;-80
2021/12/12 14:56:37;;;;;;;5.88;3.40;;;6.40;99.90;;;;;;4922309;28;91549;-80
2021/12/12 14:59:19;;;;;;;6.07;3.85;;;6.40;99.90;;;;;;4923037;28;89198;-80
2021/12/12 15:01:52;;;;;;;6.05;3.72;;;6.40;99.90;;;;;;4923372;28;90301;-80
2021/12/12 15:04:26;;;;;;;5.35;3.35;;;6.30;99.90;;;;;;4920687;28;94341;-80
2021/12/12 15:06:58;;;;;;;5.55;3.50;;;6.30;99.90;;;;;;4922814;28;89112;-80
2021/12/12 15:10:01;;;;;;;7.72;3.63;;;6.20;99.90;;;;;;4921567;28;89173;-80
2021/12/12 15:12:31;;;;;;;5.53;3.75;;;6.10;99.90;;;;;;4917589;28;92543;-80
2021/12/12 15:15:06;;;;;;;5.60;3.50;;;6.10;99.90;;;;;;4921341;28;90724;-80
2021/12/12 15:17:33;;;;;;;5.90;3.63;;;6.10;99.90;;;;;;4921680;28;90098;-80
2021/12/12 15:20:10;;;;;;;6.38;3.47;;;6.00;99.90;;;;;;4921344;28;90135;-80
2021/12/12 15:22:39;;;;;;;6.07;3.83;;;6.00;99.90;;;;;;4920086;28;91456;-80
2021/12/12 15:25:12;;;;;;;5.35;3.33;;;5.90;99.90;;;;;;4921451;28;90169;-80
2021/12/12 15:27:40;;;;;;;7.00;3.83;;;5.90;99.90;;;;;;4920828;28;91949;-80
2021/12/12 15:30:13;;;;;;;7.07;4.30;;;5.90;99.90;;;;;;4925367;28;89313;-81
2021/12/12 15:32:48;;;;;;;6.30;3.80;;;5.80;99.90;;;;;;4946152;28;88764;-81
2021/12/12 15:35:17;;;;;;;7.00;4.10;;;5.80;99.90;;;;;;4932289;28;89723;-80
2021/12/12 15:37:47;;;;;;;18.55;13.20;;;5.70;99.90;;;;;;4919409;28;91787;-81
2021/12/12 15:40:17;;;;;;;9.30;5.38;;;5.70;99.90;;;;;;4920082;28;89354;-80
2021/12/12 15:42:50;;;;;;;7.28;4.47;;;5.70;99.90;;;;;;4920796;28;89364;-80
2021/12/12 15:45:38;;;;;;;8.30;5.57;;;5.70;99.90;;;;;;4920058;28;91323;-80
2021/12/12 15:48:14;;;;;;;9.70;5.20;;;5.70;99.90;;;;;;4921128;28;90693;-80
2021/12/12 15:50:41;;;;;;;7.03;4.60;;;5.60;99.90;;;;;;4920819;28;89235;-80
2021/12/12 15:53:26;;;;;;;9.57;4.85;;;5.60;99.90;;;;;;4920821;28;89596;-80
2021/12/12 15:55:59;;;;;;;12.27;6.68;;;5.60;99.90;;;;;;4920279;28;90510;-80
2021/12/12 15:58:29;;;;;;;8.00;4.85;;;5.60;99.90;;;;;;4920614;28;89353;-80
2021/12/12 16:01:17;;;;;;;11.45;4.78;;;5.60;99.90;;;;;;4919078;28;89205;-80
2021/12/12 16:03:49;;;;;;;9.88;5.43;;;5.60;99.90;;;;;;4919101;28;91941;-80
2021/12/12 16:06:24;;;;;;;9.90;5.55;;;5.60;99.90;;;;;;4920319;28;89374;-80
2021/12/12 16:08:52;;;;;;;8.25;5.38;;;5.70;99.90;;;;;;4919116;28;91687;-80
2021/12/12 16:11:20;;;;;;;7.43;4.85;;;5.60;99.90;;;;;;4920131;28;90515;-80
2021/12/12 16:13:47;;;;;;;7.97;4.90;;;5.70;99.90;;;;;;4920107;28;89828;-80
2021/12/12 16:16:18;;;;;;;7.90;4.95;;;5.60;99.90;;;;;;4920698;28;90093;-80
2021/12/12 16:18:49;;;;;;;7.80;4.15;;;5.70;99.90;;;;;;4920437;28;90117;-80
2021/12/12 16:21:17;;;;;;;6.13;4.03;;;5.60;99.90;;;;;;4920190;28;89262;-80
2021/12/12 16:23:51;;;;;;;7.75;4.82;;;5.60;99.90;;;;;;4920102;28;89237;-80
2021/12/12 16:26:29;;;;;;;9.05;6.60;;;5.60;99.90;;;;;;4920672;28;89183;-80
2021/12/12 16:29:06;;;;;;;8.23;5.75;;;5.60;99.90;;;;;;4920872;28;89574;-80
2021/12/12 16:31:33;;;;;;;6.95;4.68;;;5.60;99.90;;;;;;4918795;28;89293;-80
2021/12/12 16:34:11;;;;;;;8.43;5.53;;;5.60;99.90;;;;;;4918881;28;92628;-81
2021/12/12 16:36:41;;;;;;;10.80;7.60;;;5.60;99.90;;;;;;4920592;28;90210;-80
2021/12/12 16:39:11;;;;;;;10.75;7.20;;;5.70;99.90;;;;;;4918731;28;94052;-80
2021/12/12 16:41:55;;;;;;;10.68;6.85;;;5.70;99.90;;;;;;4918889;28;89309;-80
2021/12/12 16:44:29;;;;;;;8.40;5.63;;;5.70;99.90;;;;;;4920106;28;91704;-80
2021/12/12 16:47:09;;;;;;;10.05;5.70;;;5.70;99.90;;;;;;4919401;28;91867;-80
2021/12/12 16:49:38;;;;;;;10.45;6.38;;;5.70;99.90;;;;;;4920908;28;89920;-80
2021/12/12 16:52:10;;;;;;;10.25;6.10;;;5.70;99.90;;;;;;4919217;28;89799;-78
2021/12/12 16:54:42;;;;;;;5.35;3.08;;;5.70;99.90;;;;;;4919084;28;92905;-79
2021/12/12 16:57:12;;;;;;;5.35;3.25;;;5.70;99.90;;;;;;4920320;28;89287;-80
2021/12/12 16:59:42;;;;;;;7.15;3.80;;;5.70;99.90;;;;;;4919651;28;94133;-80
2021/12/12 17:02:09;;;;;;;4.70;3.08;;;5.80;99.90;;;;;;4919535;28;91087;-80
2021/12/12 17:04:44;;;;;;;7.43;3.10;;;5.80;99.90;;;;;;4920722;28;90212;-81
2021/12/12 17:07:13;;;;;;;4.88;2.72;;;5.80;99.90;;;;;;4921139;28;90067;-81
2021/12/12 17:09:40;;;;;;;4.40;2.55;;;5.80;99.90;;;;;;4921050;28;89222;-81
2021/12/12 17:12:29;;;;;;;7.90;5.35;;;5.80;99.90;;;;;;4923398;28;89244;-81
2021/12/12 17:15:07;;;;;;;10.20;6.03;;;5.80;99.90;;;;;;4924807;28;91788;-82
2021/12/12 17:17:43;;;;;;;10.15;5.70;;;5.90;99.90;;;;;;4923553;28;90122;-81
2021/12/12 17:20:14;;;;;;;12.38;6.90;;;5.90;99.90;;;;;;4925378;28;92212;-81
2021/12/12 17:22:45;;;;;;;16.40;8.07;;;5.90;99.90;;;;;;4924121;28;89447;-81
2021/12/12 17:25:11;;;;;;;11.65;6.15;;;5.90;99.90;;;;;;4925026;28;91388;-82
2021/12/12 17:27:39;;;;;;;9.52;5.38;;;5.90;99.90;;;;;;4922959;28;92497;-81
2021/12/12 17:30:30;;;;;;;7.80;4.95;;;5.90;99.90;;;;;;4922818;28;92788;-81
2021/12/12 17:33:05;;;;;;;7.65;4.78;;;5.90;99.90;;;;;;4899688;28;90449;-81
2021/12/12 17:35:47;;;;;;;7.97;4.10;;;5.90;99.90;;;;;;4902531;28;92011;-80
2021/12/12 17:38:17;;;;;;;5.70;3.13;;;5.90;99.90;;;;;;4901235;28;91403;-81
2021/12/12 17:40:53;;;;;;;4.15;2.50;;;6.00;99.90;;;;;;4904252;28;89900;-81
2021/12/12 17:44:00;;;;;;;5.43;3.20;;;6.00;99.90;;;;;;4904354;28;88955;-81
2021/12/12 17:46:47;;;;;;;4.18;2.65;;;6.10;99.90;;;;;;4903274;28;92116;-81
2021/12/12 17:49:12;;;;;;;3.42;2.30;;;6.10;99.90;;;;;;4885105;28;90491;-81
2021/12/12 17:52:16;;;;;;;4.80;2.75;;;6.20;99.90;;;;;;4882540;28;91633;-81
2021/12/12 17:54:50;;;;;;;5.90;2.80;;;6.20;99.90;;;;;;4883365;28;90017;-81
2021/12/12 17:57:23;;;;;;;5.18;2.63;;;6.20;99.90;;;;;;4883299;28;91853;-80
2021/12/12 18:00:11;;;;;;;3.88;2.30;;;6.20;99.90;;;;;;4885686;28;90421;-81
2021/12/12 18:02:39;;;;;;;6.13;2.70;;;6.20;99.90;;;;;;4874205;28;91885;-81
2021/12/12 18:05:20;;;;;;;4.97;2.83;;;6.20;99.90;;;;;;4888849;28;89270;-81
2021/12/12 18:08:24;;;;;;;4.88;2.92;;;6.20;99.90;;;;;;4891247;28;90979;-81
2021/12/12 18:11:03;;;;;;;7.90;2.92;;;6.20;99.90;;;;;;4889115;28;91798;-81
2021/12/12 18:13:36;;;;;;;6.07;2.90;;;6.10;99.90;;;;;;4902833;28;92474;-81